Carolina, PR

10:29 AM AST on September 21, 2014 (GMT -0400)
Roosevelt Roads Ns | Change Station
CLOSE
Current Station
Airport
Location: Roosevelt Roads,
Elevation: 39 ft
Nearby Weather Stations

Elev 39 ft 18.26 °N, 65.64 °W | Updated 2 hours ago

Partly Cloudy
Partly Cloudy
85 °F
Feels Like 93 °F
N
7
Wind Variable Wind from East

Today
High -- | Low -- °F
--% Chance of Precip.
Yesterday
High -- | Low -- °F
Precip. -- in
6:12 AM 6:21 PM
Waning Crescent, 6% visible
Pressure 30.04 in
Visibility 10.0 miles
Clouds Few 2500 ft
Heat Index 93 °F
Dew Point 75 °F
Humidity 72%
Rainfall 0.00 in
Snow Depth Not available.
UV 2 out of 12
Pollen Not available.
Air Quality Not available.
Flu Activity Not available.
METAR TJNR 211153Z AUTO 08006KT 10SM FEW025 29/24 A3004 RMK AO2 SLP173 T02940239 10294 20278 53019 $

More Conditions Fewer Conditions

Pressure 30.04 in
Visibility 10.0 miles
Clouds Few 2500 ft
Heat Index 93 °F
Dew Point 75 °F
Humidity 72%
Rainfall 0.00 in
Snow Depth Not available.
UV 2 out of 12
Pollen Not available.
Air Quality Not available.
Flu Activity Not available.
METAR TJNR 211153Z AUTO 08006KT 10SM FEW025 29/24 A3004 RMK AO2 SLP173 T02940239 10294 20278 53019 $

More Conditions Fewer Conditions

10-Day Weather Forecast

Almanac

Astronomy

Sep. 21, 2014 Rise Set
Actual Time 6:12 AM AST 6:21 PM AST
Civil Twilight 5:50 AM AST 6:42 PM AST
Nautical Twilight 5:25 AM AST 7:08 PM AST
Astronomical Twilight 5:00 AM AST 7:33 PM AST
Moon 3:59 AM AST 4:42 PM AST
Length of Visible Light 12h 51m
Length of Day
12h 08m
Tomorrow will be 1m 2s shorter.
Waning Crescent, 6% of the Moon is Illuminated
Today
Waning Crescent
Sep 24
New
Oct 1
First Quarter
Oct 8
Full
Oct 15
Last Quarter

Community

WunderPhotos

Upload Photos

1,755,159 photos uploaded!

Nearby

Snow Depth

Station Depth Elevation
No new snow has been reported.

Earthquake Activity

City Distance Mag. Time & Date
No recent earthquake activity has been reported nearby.
Minimum magnitude displayed is 2.5.

Coastal Water Temperatures

Place Temperature
San Juan, PR 84.9 °F
Mayaguez, PR 84.0 °F
Esperanza, PR 84.0 °F

Nearby Weather Stations